Tiempo atmosférico en la estación meteorológica de A Pobra de Trives, Ourense (840 m.)



Fecha
DESCASC
Temp. máxima en grados centígrados (hora)
DESCASC
Temp. mínima en grados centígrados (hora)
DESCASC
Temp. media en grados centígrados
DESCASC
Racha de viento máxima en m/sg (hora)
DESCASC
Velocidad máxima media en intervalos de 10 minutos(hora)
DESCASC
Precipitaciones diarias en mm
DESCASC
Precipitaciones de 00:00 a 06:00 en mm
DESCASC
Precipitaciones de 06:00 a 12:00 en mm
DESCASC
Precipitaciones de 12:00 a 18:00 en mm
DESCASC
Precipitaciones de 18:00 a 24:00 en mm
DESCASC
19-04-2018 24.4 (18:00) 8.1 (05:00) 16.3 7.78 (00:20) 4.17 (00:40) 0 0 0 0 0
18-04-2018 24.6 (17:50) 6.9 (04:10) 15.8 12.78 (11:10) 5.56 (12:00) 0 0 0 0 0
17-04-2018 22 (18:00) 4.3 (07:30) 13.2 6.67 (18:20) 3.33 (18:50) 0 0 0 0 0
16-04-2018 17.4 (17:30) 1.5 (06:50) 9.4 7.5 (17:00) 4.17 (20:30) 0 0 0 0 0
15-04-2018 13.7 (12:40) 5.3 (00:00) 9.5 9.17 (14:40) 4.72 (15:20) 0.6 0 0.2 0 0.4
14-04-2018 16.5 (15:10) 3.4 (00:00) 10 10.28 (16:30) 5.28 (16:00) 0 0 0 0 0
13-04-2018 11.8 (17:00) 3.3 (00:00) 7.6 7.5 (19:00) 3.89 (19:40) 0.4 0 0 0.4 0
12-04-2018 8.6 (17:00) 3.9 (00:00) 6.3 12.5 (18:40) 6.11 (16:10) 0 0 0 0 0
11-04-2018 9 (17:30) 0.7 (00:00) 4.8 9.72 (08:20) 5 (16:00) 8 0 0 1 7
10-04-2018 7.5 (14:10) 1 (00:00) 4.3 11.67 (02:00) 5.83 (01:10) 16 6.6 7.8 1.4 0.2
09-04-2018 11.3 (17:00) 2.2 (00:00) 6.8 9.17 (17:20) 4.72 (19:30) 9.8 7.2 0.6 0 2
08-04-2018 14.4 (14:50) 4.6 (00:00) 9.5 11.39 (16:30) 5.83 (13:30) 2.2 0 0.2 0.4 1.6
07-04-2018 12.3 (16:40) 2.8 (00:00) 7.6 10.28 (17:20) 5.28 (17:20) 0.8 0 0.2 0.6 0
06-04-2018 15.9 (14:30) 4.1 (00:00) 10 10 (14:10) 5 (14:50) 5.6 0 0 1.6 4
05-04-2018 15.1 (18:50) 2.1 (00:00) 8.6 12.78 (17:20) 6.11 (16:10) 0 0 0 0 0
04-04-2018 11.8 (14:20) 4.4 (00:00) 8.1 15.83 (17:00) 7.5 (17:20) 11.2 6.2 4.4 0.6 0
03-04-2018 11.6 (12:30) 3.5 (00:00) 7.6 18.89 (06:00) 7.78 (18:00) 33 5.6 7.4 1.8 18.2
02-04-2018 13.2 (14:10) 7.2 (00:00) 10.2 14.17 (16:50) 6.11 (16:30) 4 0 1 2.6 0.4
01-04-2018 13.7 (18:50) 2.8 (00:00) 8.2 12.22 (14:50) 6.39 (14:50) 1.8 1.8 0 0 0
31-03-2018 10.6 (16:20) 1.1 (00:00) 5.9 13.89 (01:10) 7.22 (00:10) 8 6.8 0.6 0 0.6
30-03-2018 5.9 (12:10) 0 (00:00) 3 17.5 (23:20) 7.78 (22:30) 17.4 0.8 0.2 8.6 7.8
29-03-2018 9.9 (13:20) 1 (00:00) 5.4 16.39 (23:20) 7.78 (22:50) 12.6 0 0 4.4 8.2
28-03-2018 14.1 (13:40) 3.8 (00:00) 9 13.06 (16:20) 5.83 (16:20) 5 0 0 1 4
27-03-2018 16.8 (16:30) 5.3 (00:00) 11 8.61 (19:20) 4.72 (23:50) 0 0 0 0 0
26-03-2018 12.2 (15:40) -0.4 (00:00) 5.9 7.5 (15:50) 3.61 (15:50) 0 0 0 0 0
25-03-2018 8.2 (16:50) 1.1 (00:00) 4.6 10 (15:00) 5 (19:30) 1.4 1.2 0.2 0 0
24-03-2018 4.7 (17:10) 0.6 (00:00) 2.6 17.78 (08:20) 8.33 (08:30) 29.2 4.6 12.6 7.6 4.4
23-03-2018 12 (14:20) 0.8 (00:00) 6.4 18.89 (20:10) 7.78 (20:20) 18 4.6 0.8 1.6 11

Gráficas

Temp. máximas Temp. mínimas Temp. medias Precipitaciones Rachas de viento máximas Velocidades máximas media en intervalos de 10 minutos

Datos horarios

Fecha y hora oficial Temperatura (ºC) Velocidad del viento (km/h) Dirección del viento Racha (km/h) Dirección de racha Precipitación (mm) Presión (hPa) Tendencia (hPa) Humedad (%)
2018-04-21 23:00:00 13.1 4 Nordeste 13 Sudeste 0 921.2 0.2 70
2018-04-21 22:00:00 14.2 5 Este 17 Sudeste 0 920.8 0 62
2018-04-21 21:00:00 15.6 10 Sudeste 27 Sudeste 0 920.7 0.1 55
2018-04-21 20:00:00 17.1 5 Sudeste 13 Sur 0 921 0.6 49
2018-04-21 19:00:00 17.4 8 Sudeste 26 Sur 0 920.8 0.2 46
2018-04-21 18:00:00 18.9 8 Sur 21 Sur 0 920.6 0.2 40
2018-04-21 17:00:00 19 11 Este 20 Este 0 920.4 -0.3 47
2018-04-21 16:00:00 18.6 8 Sudeste 22 Este 0 920.6 -0.7 45
2018-04-21 15:00:00 18.2 8 Este 19 Este 0 920.4 -1.1 50
2018-04-21 14:00:00 16.7 10 Este 23 Nordeste 0 920.7 -0.7 55
2018-04-21 13:00:00 16.1 12 Este 23 Este 0 921.3 -0.3 59
2018-04-21 12:00:00 15 11 Este 19 Este 0 921.5 0.1 63
2018-04-21 11:00:00 13.2 9 Este 14 Este 0 921.4 0.4 63
2018-04-21 10:00:00 13.2 7 Sudeste 11 Sudeste 0 921.6 0.9 62
2018-04-21 09:00:00 11.6 4 Noroeste 13 Noroeste 0 921.4 0.6 69
2018-04-21 08:00:00 10 0 Calma 7 Sudoeste 0 921 0.2 69
2018-04-21 07:00:00 9.9 3 Sur 10 Noroeste 0 920.7 -0.1 68
2018-04-21 06:00:00 11.1 2 Noroeste 6 Nordeste 0 920.8 -0.2 62
2018-04-21 05:00:00 11.8 6 Nordeste 10 Nordeste 0 920.8 -0.5 59
2018-04-21 04:00:00 12.3 7 Este 16 Este 0 920.8 -0.8 58
2018-04-21 03:00:00 13.1 5 Nordeste 21 Este 0 921 -0.5 54
2018-04-21 02:00:00 13.9 10 Este 18 Este 0 921.3 -0.3 51
2018-04-21 01:00:00 14.8 7 Sudeste 24 Sudeste 0 921.6 0.3 48
2018-04-21 00:00:00 14.7 9 Sudeste 16 Sudeste 0 921.5 0.7 46
2018-04-20 23:00:00 15.2 5 Sur 9 Sudeste 0 921.6 1.4 44
2018-04-20 22:00:00 16.8 6 Sudeste 18 Sudeste 0 921.3 1.3 39
2018-04-20 21:00:00 18.1 8 Sudeste 22 Sudeste 0 920.8 0.7 33
2018-04-20 20:00:00 19.9 12 Sudeste 30 Este 0 920.2 -0.3 28
2018-04-20 19:00:00 21.3 15 Este 29 Este 0 920 -0.8 29
2018-04-20 18:00:00 21.6 18 Este 33 Este 0 920.1 -1.1 31
2018-04-20 17:00:00 20.9 12 Este 30 Sudeste 0 920.5 -1.5 35
2018-04-20 16:00:00 21.2 12 Este 27 Este 0 920.8 -1.7 36
2018-04-20 15:00:00 21.7 12 Nordeste 24 Nordeste 0 921.2 -1.7 36
2018-04-20 14:00:00 21.8 8 Este 27 Nordeste 0 922 -0.9 41
2018-04-20 13:00:00 20.7 14 Este 28 Este 0 922.5 -0.7 43
2018-04-20 12:00:00 19 17 Este 28 Este 0 922.9 -0.3 48
2018-04-20 11:00:00 17 15 Este 30 Este 0 922.9 0 54
2018-04-20 10:00:00 15.2 15 Este 27 Este 0 923.2 0.4 61
2018-04-20 09:00:00 13.5 9 Este 18 Este 0 923.2 0.3 67
2018-04-20 08:00:00 11.3 6 Este 15 Este 0 922.9 -0.1 74
2018-04-20 07:00:00 11.4 3 Sudeste 13 Este 0 922.8 -0.1 73
2018-04-20 06:00:00 11.4 8 Este 14 Nordeste 0 922.9 -0.2 74
2018-04-20 05:00:00 12.1 9 Este 15 Nordeste 0 923 -0.2 72
2018-04-20 04:00:00 11.8 4 Nordeste 11 Norte 0 922.9 -0.4 76
2018-04-20 03:00:00 11.5 7 Norte 13 Noroeste 0 923.1 -0.2 77
2018-04-20 02:00:00 11.7 7 Noroeste 10 Noroeste 0 923.2 -0.1 77
2018-04-20 01:00:00 12.3 3 Oeste 12 Noroeste 0 923.3 0.4 78
2018-04-20 00:00:00 13.1 9 Noroeste 17 Oeste 0 923.3 0.7 78
2018-04-19 23:00:00 14.3 6 Noroeste 22 Oeste 0 923.3 1 75
2018-04-19 22:00:00 16.2 10 Oeste 25 Oeste 0 922.9 0.7 68
2018-04-19 21:00:00 17.7 9 Oeste 25 Noroeste 0 922.6 0.4 57
2018-04-19 20:00:00 19.8 9 Oeste 24 Oeste 0 922.3 -0.2 47
2018-04-19 19:00:00 21 11 Oeste 23 Oeste 0 922.2 -1.1 44
2018-04-19 18:00:00 24.1 6 Este 25 Este 0 922.2 -1.4 29
2018-04-19 17:00:00 23.4 4 Noroeste 13 Norte 0 922.5 -1.6 36
2018-04-19 16:00:00 22.6 5 Sudeste 14 Este 0 923.3 -1.4 37
2018-04-19 15:00:00 21.9 8 Este 20 Sudeste 0 923.6 -1.3 41
2018-04-19 14:00:00 21.8 9 Sudeste 21 Este 0 924.1 -0.9 40
2018-04-19 13:00:00 20.5 9 Este 19 Este 0 924.7 -0.3 45
2018-04-19 12:00:00 19.9 8 Nordeste 17 Este 0 924.9 -0.1 48
2018-04-19 11:00:00 17.5 9 Este 19 Este 0 925 0.1 52
2018-04-19 10:00:00 15.7 5 Noroeste 17 Norte 0 925 0.5 62
2018-04-19 09:00:00 11.7 6 Noroeste 12 Oeste 0 925 0.2 77
2018-04-19 08:00:00 8.9 5 Sur 16 Sudoeste 0 924.9 -0.2 83
2018-04-19 07:00:00 8.4 9 Noroeste 17 Noroeste 0 924.5 -0.6 84
2018-04-19 06:00:00 8.4 5 Noroeste 14 Oeste 0 924.8 -0.6 83
2018-04-19 05:00:00 8.1 5 Noroeste 14 Noroeste 0 925.1 -0.7 83
2018-04-19 04:00:00 8.8 9 Noroeste 14 Noroeste 0 925.1 -0.8 81
2018-04-19 03:00:00 10.1 4 Oeste 11 Oeste 0 925.4 -0.6 76
2018-04-19 02:00:00 12 10 Oeste 23 Oeste 0 925.8 0.3 70
2018-04-19 01:00:00 13.2 14 Oeste 28 Oeste 0 925.9 0.9 68
2018-04-19 00:00:00 14.5 13 Oeste 26 Oeste 0 926 1.4 63
2018-04-18 23:00:00 15.8 15 Noroeste 29 Noroeste 0 925.5 1.1 55
2018-04-18 22:00:00 16.9 6 Sudoeste 19 Sur 0 925 0.9 45
2018-04-18 21:00:00 19.2 8 Sur 21 Sur 0 924.6 0.5 37
2018-04-18 20:00:00 21.1 12 Sur 25 Sudeste 0 924.4 0 30
2018-04-18 19:00:00 24.3 10 Sur 28 Este 0 924.1 -0.7 23
2018-04-18 18:00:00 24.6 10 Sudeste 26 Sur 0 924.1 -1 19
2018-04-18 17:00:00 24.4 12 Sur 28 Sur 0 924.4 -1.1 19
2018-04-18 16:00:00 24 14 Sur 34 Sur 0 924.8 -0.9 20
2018-04-18 15:00:00 24.1 12 Sur 31 Sur 0 925.1 -0.3 20
2018-04-18 14:00:00 23.3 8 Sur 37 Sudeste 0 925.5 0.1 25
2018-04-18 13:00:00 22.5 14 Sur 39 Sudeste 0 925.7 0.2 28
2018-04-18 12:00:00 20.6 20 Sudeste 46 Este 0 925.4 0.3 31
2018-04-18 11:00:00 18.5 17 Este 42 Este 0 925.4 0.4 39
2018-04-18 10:00:00 16.7 14 Este 35 Este 0 925.5 0.5 44
2018-04-18 09:00:00 14.1 14 Este 41 Nordeste 0 925.1 -0.2 49
2018-04-18 08:00:00 11.6 13 Este 37 Sudeste 0 925 -0.5 53
2018-04-18 07:00:00 10.3 13 Este 29 Este 0 925 -1.1 58
2018-04-18 06:00:00 8.4 13 Este 25 Sudeste 0 925.3 -1.2 62
2018-04-18 05:00:00 7.9 13 Este 19 Este 0 925.5 -1.3 69
2018-04-18 04:00:00 7 5 Norte 12 Nordeste 0 926.1 -0.8 80
2018-04-18 03:00:00 8.5 5 Noroeste 14 Noroeste 0 926.5 -0.5 75
2018-04-18 02:00:00 9.2 8 Noroeste 12 Noroeste 0 926.8 -0.2 73
2018-04-18 01:00:00 10 5 Noroeste 12 Noroeste 0 926.9 0.4 74
2018-04-18 00:00:00 11.5 5 Oeste 12 Oeste 0 927 1 72
2018-04-17 23:00:00 12.4 8 Noroeste 14 Noroeste 0 927 1.2 65
2018-04-17 22:00:00 13.6 8 Oeste 12 Oeste 0 926.5 0.8 56
2018-04-17 21:00:00 16.1 6 Oeste 17 Oeste 0 926 0.5 48
2018-04-17 20:00:00 18.2 9 Oeste 23 Oeste 0 925.8 0.3 39
2018-04-17 19:00:00 21.3 10 Sudoeste 24 Oeste 1.2 925.7 -0.1 31
2018-04-17 18:00:00 21.8 9 Oeste 21 Oeste 0 925.5 -0.5 28
2018-04-17 17:00:00 21.4 8 Oeste 18 Oeste 0 925.5 -0.9 31
2018-04-17 16:00:00 20.4 5 Norte 23 Noroeste 0 925.8 -0.9 34
2018-04-17 15:00:00 19.5 7 Nordeste 19 Este 0 926 -0.7 31
2018-04-17 14:00:00 18.3 5 Nordeste 19 Este 0 926.4 -0.3 38
2018-04-17 13:00:00 17.1 6 Sudeste 15 Este 0 926.7 0.2 45
2018-04-17 12:00:00 15.7 6 Nordeste 13 Este 0 926.7 0.7 48
2018-04-17 11:00:00 13.6 5 Este 12 Este 0 926.7 1.4 54
2018-04-17 10:00:00 10.9 3 Sudeste 9 Noroeste 0 926.5 1.6 63
2018-04-17 09:00:00 7.3 6 Noroeste 13 Noroeste 0 926 1.5 76
2018-04-17 08:00:00 4.5 7 Noroeste 11 Norte 0 925.3 0.8 82
2018-04-17 07:00:00 4.6 8 Norte 13 Noroeste 0 924.9 0.3 82
2018-04-17 06:00:00 5.4 8 Noroeste 15 Sudoeste 0 924.5 0.2 75
2018-04-17 05:00:00 6.5 3 Nordeste 13 Sur 0 924.5 0.4 73
2018-04-17 04:00:00 6.6 6 Oeste 12 Sudoeste 0 924.6 1.2 73
2018-04-17 03:00:00 7.1 5 Norte 12 Norte 0 924.3 1.1 72
2018-04-17 02:00:00 7.4 5 Nordeste 16 Norte 0 924.1 1 72
2018-04-17 01:00:00 7.4 8 Norte 15 Nordeste 0 923.4 1.3 71
2018-04-17 00:00:00 8 4 Nordeste 15 Nordeste 0 923.2 1.7 66
2018-04-16 23:00:00 9 6 Noroeste 15 Noroeste 0 923.1 1.9 62
2018-04-16 22:00:00 9.5 6 Norte 12 Oeste 0 922.1 1 59
2018-04-16 21:00:00 11.8 9 Oeste 26 Oeste 0 921.5 0.7 51
2018-04-16 20:00:00 13.5 13 Sudoeste 26 Sudoeste 0 921.2 0 48
2018-04-16 19:00:00 17 11 Oeste 24 Sudoeste 0 921.1 -0.5 38
2018-04-16 18:00:00 16.9 9 Sudoeste 26 Oeste 0 920.8 -1 36
2018-04-16 17:00:00 16.7 9 Oeste 27 Sudoeste 0 921.2 -0.9 38
2018-04-16 16:00:00 15.6 5 Nordeste 16 Oeste 0 921.6 -0.5 41
2018-04-16 15:00:00 14.7 6 Este 15 Noroeste 0 921.8 -0.4 44
2018-04-16 14:00:00 14 7 Sudeste 22 Sudeste 0 922.1 0 47
2018-04-16 13:00:00 12.7 4 Sudeste 15 Sudeste 0 922.1 0.2 48
2018-04-16 12:00:00 10.6 6 Este 19 Este 0 922.2 0.4 58
2018-04-16 11:00:00 8.9 7 Este 14 Este 0 922.1 1.1 68
2018-04-16 10:00:00 7.7 4 Nordeste 8 Noroeste 0 921.9 1.4 75
2018-04-16 09:00:00 4.4 6 Noroeste 12 Noroeste 0 921.8 1.4 87
2018-04-16 08:00:00 1.9 4 Noroeste 8 Sudoeste 0 921 0.7 92
2018-04-16 07:00:00 2.1 5 Sudoeste 16 Oeste 0 920.5 0.6 92
2018-04-16 06:00:00 2 4 Oeste 14 Oeste 0 920.4 0.4 87
2018-04-16 05:00:00 3 10 Oeste 16 Oeste 0 920.3 0.4 89
2018-04-16 04:00:00 3.6 10 Oeste 17 Oeste 0 919.9 0 90
2018-04-16 03:00:00 5.1 5 Oeste 13 Oeste 0 920 0.1 91
2018-04-16 02:00:00 5.4 6 Noroeste 19 Oeste 0 919.9 0.3 90
2018-04-16 01:00:00 5.6 6 Oeste 19 Oeste 0 919.9 0.9 89
2018-04-16 00:00:00 5.5 6 Oeste 12 Oeste 0 919.9 1.2 89
2018-04-15 23:00:00 5.6 8 Oeste 20 Oeste 0 919.6 1.1 87
2018-04-15 22:00:00 6.8 9 Oeste 21 Noroeste 0.4 919 0.6 88
2018-04-15 21:00:00 7.6 7 Oeste 26 Oeste 0 918.7 0.5 80
2018-04-15 20:00:00 8.9 10 Oeste 24 Noroeste 0 918.5 0 73
2018-04-15 19:00:00 9.8 12 Noroeste 27 Oeste 0 918.4 -0.5 69
2018-04-15 18:00:00 10.8 10 Noroeste 26 Oeste 0 918.2 -0.8 61
2018-04-15 17:00:00 11.8 12 Oeste 32 Oeste 0 918.5 -0.7 55
2018-04-15 16:00:00 12.9 13 Oeste 32 Oeste 0 918.9 -0.4 56
2018-04-15 15:00:00 12.1 12 Oeste 33 Sudoeste 0 919 -0.3 52
2018-04-15 14:00:00 12.3 9 Oeste 32 Oeste 0 919.2 0.1 60
2018-04-15 13:00:00 13.1 12 Oeste 31 Sudoeste 0 919.3 0.5 57
2018-04-15 12:00:00 10.3 10 Oeste 31 Oeste 0 919.3 0.5 71
2018-04-15 11:00:00 9 11 Oeste 24 Oeste 0 919.1 0.6 83
2018-04-15 10:00:00 8 6 Noroeste 19 Oeste 0.2 918.8 0.4 91
2018-04-15 09:00:00 8.1 2 Noroeste 18 Noroeste 0 918.8 0.3 89
2018-04-15 08:00:00 7.8 2 Noroeste 11 Nordeste 0 918.5 -0.2 88
2018-04-15 07:00:00 7.6 4 Este 18 Sudeste 0 918.4 -0.3 87
2018-04-15 06:00:00 7.3 9 Sudeste 25 Sudeste 0 918.5 -0.7 88
2018-04-15 05:00:00 7.3 8 Sudeste 19 Sudeste 0 918.7 -0.8 88
2018-04-15 04:00:00 7.6 9 Sudeste 18 Este 0 918.7 -0.7 82
2018-04-15 03:00:00 7.8 4 Este 12 Nordeste 0 919.2 -0.4 82
2018-04-15 02:00:00 8.4 2 Sur 19 Nordeste 0 919.5 -0.5 77
2018-04-15 01:00:00 8.4 8 Nordeste 18 Nordeste 0 919.4 -0.6 72
2018-04-15 00:00:00 8.5 9 Noroeste 19 Sudoeste 0 919.6 0.1 68
2018-04-14 23:00:00 9.5 7 Oeste 24 Oeste 0 920 1 69
2018-04-14 22:00:00 10.3 8 Oeste 17 Oeste 0 920 1.3 70
2018-04-14 21:00:00 11.7 8 Oeste 28 Oeste 0 919.5 0.7 62
2018-04-14 20:00:00 12.8 13 Sudoeste 30 Sudoeste 0 919 -0.1 52
2018-04-14 19:00:00 15.4 9 Sur 30 Sur 0 918.7 -0.9 44
2018-04-14 18:00:00 16.3 10 Sudoeste 32 Oeste 0 918.8 -0.6 43
2018-04-14 17:00:00 15.8 15 Oeste 37 Sudoeste 0 919.1 -0.3 45
2018-04-14 16:00:00 15.4 19 Sudoeste 34 Oeste 0 919.6 -0.1 46
2018-04-14 15:00:00 16.1 12 Oeste 27 Sudoeste 0 919.4 -0.6 51
2018-04-14 14:00:00 14.7 6 Noroeste 14 Norte 0 919.4 -0.3 56
2018-04-14 13:00:00 14 8 Sudeste 17 Este 0 919.7 -0.1 59
2018-04-14 12:00:00 12.5 7 Este 14 Este 0 920 0.8 68
2018-04-14 11:00:00 10.5 4 Nordeste 12 Este 0 919.7 1 73
2018-04-14 10:00:00 8.1 6 Oeste 14 Noroeste 0 919.8 1.4 89
2018-04-14 09:00:00 4.6 8 Noroeste 15 Noroeste 0 919.2 1.1 96
2018-04-14 08:00:00 3.4 5 Oeste 13 Oeste 0 918.7 0.6 95
2018-04-14 07:00:00 4.6 6 Oeste 10 Oeste 0 918.4 0.3 95
2018-04-14 06:00:00 4.8 4 Oeste 8 Noroeste 0 918.1 -0.1 95
2018-04-14 05:00:00 5.2 4 Noroeste 14 Noroeste 0 918.1 0.5 94
2018-04-14 04:00:00 5.7 8 Oeste 15 Oeste 0 918.1 1 95
2018-04-14 03:00:00 5.1 7 Noroeste 14 Oeste 0 918.2 1.3 96
2018-04-14 02:00:00 5 8 Oeste 12 Oeste 0 917.6 1.1 95
2018-04-14 01:00:00 5.7 6 Oeste 15 Oeste 0 917.1 1.4 94
2018-04-14 00:00:00 6.4 7 Oeste 16 Oeste 0 916.9 2.2 94
2018-04-13 23:00:00 7.1 8 Oeste 19 Oeste 0 916.5 2.4 93
2018-04-13 22:00:00 7.6 8 Oeste 19 Oeste 0 915.7 2.4 90
2018-04-13 21:00:00 8 10 Oeste 24 Oeste 0 914.7 1.8 85
2018-04-13 20:00:00 9 10 Oeste 26 Oeste 0 914.1 1.5 81
2018-04-13 19:00:00 10.2 13 Oeste 27 Oeste 0 913.3 0.6 78
2018-04-13 18:00:00 10.2 8 Oeste 24 Noroeste 0.4 912.9 0.6 88
2018-04-13 17:00:00 11.7 12 Oeste 26 Oeste 0 912.6 0.5 70
2018-04-13 16:00:00 9 8 Noroeste 23 Noroeste 0 912.7 1.3 83
2018-04-13 15:00:00 9.8 11 Noroeste 21 Oeste 0 912.3 1.6 81
2018-04-13 14:00:00 8.4 10 Oeste 20 Oeste 0 912.1 2.2 84
2018-04-13 13:00:00 9.2 9 Noroeste 22 Noroeste 0 911.4 2.3 81
2018-04-13 12:00:00 8.2 8 Oeste 21 Oeste 0 910.7 2.3 82
2018-04-13 11:00:00 6.7 9 Oeste 17 Oeste 0 909.9 2.4 87
2018-04-13 10:00:00 6.1 4 Noroeste 15 Oeste 0 909.1 2.3 90
2018-04-13 09:00:00 5.3 8 Oeste 16 Oeste 0 908.4 2 90
2018-04-13 08:00:00 5 10 Oeste 17 Oeste 0 907.5 1.5 91
2018-04-13 07:00:00 4.7 9 Oeste 16 Oeste 0 906.8 1 91
2018-04-13 06:00:00 4.7 8 Oeste 18 Oeste 0 906.4 1 92
2018-04-13 05:00:00 4.3 7 Oeste 14 Oeste 0 906 0.9 91
2018-04-13 04:00:00 3.9 9 Oeste 16 Oeste 0 905.8 0.9 93
2018-04-13 03:00:00 3.4 6 Noroeste 14 Noroeste 0 905.4 0.7 94
2018-04-13 02:00:00 3.6 7 Noroeste 10 Noroeste 0 905.1 0.9 93
2018-04-13 01:00:00 4.3 4 Oeste 8 Noroeste 0 904.9 1.5 89
2018-04-13 00:00:00 4.9 3 Este 9 Este 0 904.7 1.9 88
2018-04-12 23:00:00 5.4 5 Este 26 Sudeste 0 904.2 1.9 84
2018-04-12 22:00:00 5.7 17 Sudeste 31 Sudeste 0 903.4 1.2 79
2018-04-12 21:00:00 6 13 Sudeste 37 Sudeste 0 902.8 0.9 79
2018-04-12 20:00:00 6.4 15 Sudeste 37 Sudeste 0 902.3 0.3 77
2018-04-12 19:00:00 7.1 17 Sudeste 45 Sudeste 0 902.2 -0.4 74
2018-04-12 18:00:00 7.5 17 Sudeste 42 Sur 0 901.9 -1.3 73
2018-04-12 17:00:00 8.6 17 Sudeste 42 Sudeste 0 902 -1.5 73
2018-04-12 16:00:00 8.1 19 Sudeste 40 Sudeste 0 902.6 -1.6 74
2018-04-12 15:00:00 7.5 21 Sudeste 37 Sudeste 0 903.2 -1.3 73
2018-04-12 14:00:00 7.7 16 Sudeste 42 Sudeste 0 903.5 -1.5 74
2018-04-12 13:00:00 7.2 20 Sudeste 37 Este 0 904.2 -1.2 81
2018-04-12 12:00:00 6.6 19 Este 33 Este 0 904.5 -1.1 88
2018-04-12 11:00:00 5.7 13 Este 22 Este 0 905 -0.9 95
2018-04-12 10:00:00 4.8 5 Este 12 Nordeste 0 905.4 -0.8 96
2018-04-12 09:00:00 4.5 3 Norte 6 Norte 0 905.6 -1.2 96
2018-04-12 08:00:00 4.1 3 Este 8 Nordeste 0 905.9 -1.5 96
2018-04-12 07:00:00 4.1 4 Norte 9 Norte 0 906.2 -1.8 96
2018-04-12 06:00:00 4.3 4 Norte 11 Sudeste 0 906.8 -2.2 96
2018-04-12 05:00:00 4.4 8 Noroeste 10 Noroeste 0 907.4 -1.9 96
2018-04-12 04:00:00 4.2 0 Calma 7 Sudeste 0 908 -1.8 95
2018-04-12 03:00:00 4.1 2 Sur 11 Noroeste 0 909 -1.1 95
2018-04-12 02:00:00 5.1 4 Oeste 8 Oeste 0 909.3 -0.9 95
2018-04-12 01:00:00 5.2 3 Oeste 9 Noroeste 0 909.8 0 95
2018-04-12 00:00:00 5.2 6 Oeste 11 Oeste 0.4 910.1 0.7 95
2018-04-11 23:00:00 5.1 4 Noroeste 24 Noroeste 0.6 910.2 0.9 94
2018-04-11 22:00:00 5.1 10 Oeste 26 Noroeste 0.8 909.8 1.1 93
2018-04-11 21:00:00 5.5 8 Noroeste 24 Noroeste 1.8 909.4 0.6 92
2018-04-11 20:00:00 6.1 13 Noroeste 30 Oeste 1.8 909.3 0.7 91
2018-04-11 19:00:00 7.4 11 Oeste 27 Oeste 1.6 908.7 -0.4 91
2018-04-11 18:00:00 7.4 12 Noroeste 32 Oeste 0.8 908.8 -0.2 84
2018-04-11 17:00:00 7.7 15 Oeste 30 Oeste 0.2 908.6 -0.7 88
2018-04-11 16:00:00 7.9 18 Oeste 35 Noroeste 0 909.1 -0.4 76
2018-04-11 15:00:00 8.2 14 Oeste 33 Oeste 0 909 -0.4 74
2018-04-11 14:00:00 6.3 13 Oeste 31 Oeste 0 909.3 0 84
2018-04-11 13:00:00 6.7 12 Noroeste 32 Oeste 0 909.5 0.7 74
2018-04-11 12:00:00 5.7 14 Oeste 33 Noroeste 0 909.4 0.9 80
2018-04-11 11:00:00 4.3 11 Oeste 31 Noroeste 0 909.3 1.4 85
2018-04-11 10:00:00 2.4 11 Oeste 24 Oeste 0 908.8 1.5 94
2018-04-11 09:00:00 1.9 8 Oeste 35 Noroeste 0 908.5 1.6 93
2018-04-11 08:00:00 1.4 6 Noroeste 23 Oeste 0 907.9 1 95
2018-04-11 07:00:00 1.3 9 Oeste 23 Oeste 0 907.3 0.7 95
2018-04-11 06:00:00 1 10 Oeste 21 Oeste 0 906.9 0.6 95
2018-04-11 05:00:00 1.2 10 Oeste 20 Oeste 0 906.9 1 94
2018-04-11 04:00:00 1.4 6 Oeste 21 Oeste 0 906.6 1.5 95
2018-04-11 03:00:00 1.1 9 Oeste 21 Oeste 0 906.3 1.9 95
2018-04-11 02:00:00 1.4 9 Oeste 19 Oeste 0 905.9 2.3 95
2018-04-11 01:00:00 1.3 11 Oeste 21 Oeste 0 905.1 2.3 95
2018-04-11 00:00:00 1.2 10 Oeste 19 Oeste 0 904.4 2.8 95
2018-04-10 23:00:00 1.4 8 Noroeste 18 Noroeste 0 903.6 2.9 93
2018-04-10 22:00:00 2.1 10 Oeste 18 Oeste 0 902.8 2.6 93
2018-04-10 21:00:00 2.3 6 Oeste 21 Oeste 0 901.6 1.9 91
2018-04-10 20:00:00 3.4 4 Sudoeste 10 Sudeste 0 900.7 1.1 92
2018-04-10 19:00:00 3.2 6 Sudeste 15 Norte 0.2 900.2 0.7 91
2018-04-10 18:00:00 6 6 Nordeste 30 Oeste 0 899.7 -0.3 77
2018-04-10 17:00:00 5 18 Oeste 40 Oeste 0.2 899.6 -0.6 81
2018-04-10 16:00:00 7.2 12 Sudoeste 30 Oeste 0 899.5 -1.3 72
2018-04-10 15:00:00 6.7 6 Oeste 24 Oeste 0 900 -1.6 76
2018-04-10 14:00:00 7.4 12 Oeste 31 Oeste 0.2 900.2 -1.1 81
2018-04-10 13:00:00 6 14 Oeste 30 Sudoeste 1 900.8 -0.8 89
2018-04-10 12:00:00 3.8 11 Oeste 24 Oeste 0.4 901.6 -0.4 86
2018-04-10 11:00:00 5.7 9 Oeste 21 Oeste 0 901.3 -1.1 81
2018-04-10 10:00:00 2.7 11 Oeste 23 Oeste 0.6 901.6 -1.4 94
2018-04-10 09:00:00 2.1 8 Oeste 29 Sudoeste 0 902 -1.5 94
2018-04-10 08:00:00 1.2 11 Oeste 25 Oeste 1.4 902.4 -1.6 95
2018-04-10 07:00:00 1 14 Oeste 31 Oeste 5.4 903 -2.3 94
2018-04-10 06:00:00 2.7 16 Oeste 33 Oeste 4.6 903.5 -3.1 90
2018-04-10 05:00:00 4.1 5 Sudoeste 30 Oeste 0.8 904 -4.4 90
2018-04-10 04:00:00 4.6 8 Sudoeste 32 Sudoeste 0.8 905.3 -4.1 87
2018-04-10 03:00:00 4.8 13 Sudoeste 36 Oeste 0 906.6 -4.2 84
2018-04-10 02:00:00 5.1 18 Oeste 42 Oeste 0.4 908.4 -3.2 85
2018-04-10 01:00:00 5.5 19 Oeste 36 Oeste 0 909.4 -2.4 91
2018-04-10 00:00:00 5.6 13 Oeste 30 Oeste 0.4 910.8 -1.1 92
2018-04-09 23:00:00 5.9 14 Oeste 27 Oeste 1.2 911.6 -0.2 92
2018-04-09 22:00:00 6.5 13 Oeste 23 Sudoeste 0.4 911.8 0 86
2018-04-09 21:00:00 7 12 Oeste 27 Oeste 0 911.9 0 79
2018-04-09 20:00:00 7.9 13 Noroeste 31 Oeste 0 911.8 0.2 77
2018-04-09 19:00:00 10.2 11 Oeste 27 Noroeste 0 911.8 -0.2 67
2018-04-09 18:00:00 9.9 12 Noroeste 33 Noroeste 0 911.9 -0.5 70
2018-04-09 17:00:00 11.2 11 Noroeste 28 Noroeste 0 911.6 -0.9 61
2018-04-09 16:00:00 10.1 9 Noroeste 31 Noroeste 0 912 -0.4 70
2018-04-09 15:00:00 10.1 13 Oeste 28 Oeste 0 912.4 0.3 72
2018-04-09 14:00:00 9.8 9 Noroeste 25 Noroeste 0 912.5 1.4 78
2018-04-09 13:00:00 10.1 13 Noroeste 30 Noroeste 0 912.4 1.9 81
2018-04-09 12:00:00 6.5 10 Oeste 28 Oeste 0 912.1 2.1 94
2018-04-09 11:00:00 5.9 10 Oeste 21 Oeste 0.2 911.1 1.7 97
2018-04-09 10:00:00 4.4 9 Oeste 18 Oeste 0.2 910.5 1.4 97
2018-04-09 09:00:00 3.9 10 Oeste 18 Oeste 0 910 1.3 96
2018-04-09 08:00:00 3.2 9 Oeste 19 Oeste 0 909.4 1 96
2018-04-09 07:00:00 2.7 9 Oeste 19 Oeste 0.2 909.1 0.6 95
2018-04-09 06:00:00 2.5 9 Oeste 17 Oeste 0.2 908.7 0.2 94
2018-04-09 05:00:00 2.3 7 Oeste 15 Oeste 0.6 908.4 0 94
2018-04-09 04:00:00 2.3 8 Oeste 16 Oeste 1.2 908.5 0.3 93
2018-04-09 03:00:00 2.9 8 Oeste 17 Oeste 2 908.5 0.4 91
2018-04-09 02:00:00 4.3 8 Oeste 16 Oeste 2.6 908.4 0.3 93
2018-04-09 01:00:00 4.6 4 Nordeste 9 Nordeste 0.6 908.2 0.2 94
2018-04-09 00:00:00 4.7 4 Nordeste 9 Norte 0.8 908.1 0.3 93
2018-04-08 23:00:00 5.1 6 Nordeste 16 Nordeste 0.6 908.1 0 90
2018-04-08 22:00:00 5.6 8 Nordeste 18 Nordeste 0 908 -0.5 88
2018-04-08 21:00:00 6.5 12 Nordeste 24 Norte 0 907.8 -0.7 78
2018-04-08 20:00:00 7.2 5 Noroeste 24 Oeste 0.2 908.1 -1.1 76
2018-04-08 19:00:00 8.9 17 Sudoeste 32 Sudoeste 0 908.5 -0.8 69
2018-04-08 18:00:00 9.9 8 Sudoeste 37 Oeste 0 908.5 -1.9 63
2018-04-08 17:00:00 11.1 21 Sudoeste 41 Sudoeste 0 909.2 -1.8 66
2018-04-08 16:00:00 13.9 16 Oeste 34 Oeste 0.4 909.3 -2.3 63
2018-04-08 15:00:00 12.9 12 Oeste 33 Sudoeste 0 910.4 -1.6 60
2018-04-08 14:00:00 11.3 13 Oeste 36 Oeste 0 911 -0.9 68
2018-04-08 13:00:00 11.1 16 Oeste 38 Sudoeste 0 911.6 -0.4 72
2018-04-08 12:00:00 9.8 12 Oeste 31 Sudoeste 0 912 0.1 76
2018-04-08 11:00:00 7.8 12 Oeste 28 Oeste 0 911.9 0.2 87
2018-04-08 10:00:00 6.3 5 Sur 14 Oeste 0.2 912 0.3 89
2018-04-08 09:00:00 5.3 5 Noroeste 9 Noroeste 0 911.9 0.2 91
2018-04-08 08:00:00 5.1 4 Este 8 Este 0 911.7 -0.1 89
2018-04-08 07:00:00 5.1 5 Oeste 8 Oeste 0 911.7 -0.1 88
2018-04-08 06:00:00 5 3 Norte 6 Nordeste 0 911.7 0.1 89
2018-04-08 05:00:00 5.1 3 Sudeste 7 Este 0 911.8 0 86
2018-04-08 04:00:00 5.2 0 Calma 12 Oeste 0 911.8 0 86
2018-04-08 03:00:00 5.4 7 Oeste 14 Oeste 0 911.6 -0.3 86
2018-04-08 02:00:00 5.3 8 Oeste 13 Oeste 0 911.8 0.1 88
2018-04-08 01:00:00 5.1 4 Norte 10 Noroeste 0 911.8 0.4 87
2018-04-08 00:00:00 4.6 4 Oeste 10 Noroeste 0 911.9 1.2 88
2018-04-07 23:00:00 4.7 3 Sudoeste 8 Oeste 0 911.7 1.4 85
2018-04-07 22:00:00 6 4 Noroeste 10 Sudoeste 0 911.4 1.7 84
2018-04-07 21:00:00 6.9 5 Oeste 13 Oeste 0 910.7 1.3 79
2018-04-07 20:00:00 8 5 Sudoeste 20 Oeste 0 910.3 1.2 76
2018-04-07 19:00:00 8.4 10 Noroeste 21 Noroeste 0 909.7 0.7 74
2018-04-07 18:00:00 7.8 10 Sudoeste 37 Sudoeste 0.6 909.4 0.2 80
2018-04-07 17:00:00 10.3 4 Sudeste 28 Sudoeste 0 909.1 -0.6 58
2018-04-07 16:00:00 11.7 9 Sudoeste 31 Oeste 0 909 -0.7 66
2018-04-07 15:00:00 10.3 4 Noroeste 25 Oeste 0 909.2 -0.5 69
2018-04-07 14:00:00 10.9 6 Oeste 19 Oeste 0 909.7 0.4 62
2018-04-07 13:00:00 8.7 7 Oeste 19 Sudeste 0 909.7 0.6 75
2018-04-07 12:00:00 9.3 6 Este 23 Sudoeste 0 909.7 0.8 75
2018-04-07 11:00:00 6.3 8 Este 19 Nordeste 0 909.3 0.7 88
2018-04-07 10:00:00 5.5 9 Nordeste 24 Norte 0 909.1 0.8 89
2018-04-07 09:00:00 4.4 6 Norte 17 Nordeste 0.2 908.9 0.3 91
2018-04-07 08:00:00 3.8 4 Nordeste 21 Este 0 908.6 0.1 92
2018-04-07 07:00:00 3.9 11 Este 18 Nordeste 0 908.3 -0.5 92
2018-04-07 06:00:00 3.7 8 Sudeste 18 Este 0 908.6 -0.4 94
2018-04-07 05:00:00 3.1 7 Norte 13 Norte 0 908.5 -0.7 94
2018-04-07 04:00:00 2.9 4 Nordeste 16 Sudoeste 0 908.8 -0.9 93
2018-04-07 03:00:00 3.2 4 Oeste 17 Oeste 0 909 -0.6 92
2018-04-07 02:00:00 3.4 7 Oeste 15 Oeste 0 909.2 -0.4 91
2018-04-07 01:00:00 3.5 4 Sudoeste 12 Oeste 0 909.7 0.4 92
2018-04-07 00:00:00 4.1 4 Sur 11 Sudoeste 0 909.6 0.3 92
2018-04-06 23:00:00 4.6 5 Sudeste 14 Norte 0 909.6 0.7 92
2018-04-06 22:00:00 4.6 4 Sur 23 Oeste 0.2 909.3 0.9 90
2018-04-06 21:00:00 4.8 14 Oeste 29 Oeste 1.4 909.3 0.8 89
2018-04-06 20:00:00 6.7 7 Noroeste 14 Noroeste 0.6 908.9 0.8 89
2018-04-06 19:00:00 7 4 Sudoeste 27 Oeste 1.8 908.4 -0.7 89
2018-04-06 18:00:00 7.5 13 Sudoeste 27 Sudoeste 0.8 908.5 -0.9 85
2018-04-06 17:00:00 8.3 17 Oeste 35 Oeste 0.2 908.1 -1.5 80
2018-04-06 16:00:00 9.8 16 Oeste 32 Sudoeste 0.6 909.1 -1.3 79
2018-04-06 15:00:00 12.7 13 Sudeste 36 Sudoeste 0 909.4 -1.5 57
2018-04-06 14:00:00 14.8 13 Sur 31 Sudoeste 0 909.6 -1.5 50
2018-04-06 13:00:00 12.3 5 Sur 28 Sudoeste 0 910.4 -0.7 57
2018-04-06 12:00:00 11.7 5 Norte 22 Oeste 0 910.9 -0.2 57
2018-04-06 11:00:00 11.2 5 Noroeste 28 Este 0 911.1 0 54
2018-04-06 10:00:00 10.7 11 Este 30 Este 0 911.1 -0.3 62
2018-04-06 09:00:00 9.5 15 Este 30 Este 0 911.1 -0.7 68
2018-04-06 08:00:00 8.3 12 Este 22 Nordeste 0 911.1 -1 80
2018-04-06 07:00:00 8.4 7 Sudeste 20 Este 0 911.4 -1.3 78
2018-04-06 06:00:00 8.4 5 Sudeste 18 Este 0 911.8 -1.6 78
2018-04-06 05:00:00 8.8 9 Este 26 Este 0 912.1 -1.5 77
2018-04-06 04:00:00 8.8 10 Este 32 Este 0 912.7 -1.4 77
2018-04-06 03:00:00 9 15 Este 28 Este 0 913.4 -1.1 76
2018-04-06 02:00:00 9.4 14 Este 28 Este 0 913.6 -1 72
2018-04-06 01:00:00 9.7 13 Este 25 Este 0 914.1 -0.8 67
2018-04-06 00:00:00 9.7 11 Este 23 Este 0 914.5 -0.5 63
2018-04-05 23:00:00 10.8 9 Este 28 Este 0 914.6 -0.5 57
2018-04-05 22:00:00 11 9 Sudeste 24 Este 0 914.9 -0.8 54
2018-04-05 21:00:00 11.8 9 Sudeste 27 Sudeste 0 915 -1.3 50
2018-04-05 20:00:00 13.4 12 Sudeste 36 Sudeste 0 915.1 -1.8 41
2018-04-05 19:00:00 14.7 17 Este 39 Sudeste 0 915.7 -2.1 34
2018-04-05 18:00:00 14.5 18 Este 46 Sur 0 916.3 -2.4 38
2018-04-05 17:00:00 14.1 18 Sudeste 44 Este 0 916.9 -2.1 37
2018-04-05 16:00:00 13.7 18 Sudeste 38 Sudeste 0 917.8 -1.8 39
2018-04-05 15:00:00 13.8 15 Sudeste 36 Sudeste 0 918.7 -1.4 43
2018-04-05 14:00:00 13.9 19 Sudeste 42 Sudeste 0 919 -1.4 39
2018-04-05 13:00:00 11.8 18 Sudeste 42 Sudeste 0 919.6 -1.3 54
2018-04-05 12:00:00 10.1 16 Sudeste 37 Sudeste 0 920.1 -0.4 56
2018-04-05 11:00:00 9.1 15 Este 26 Este 0 920.4 0 70
2018-04-05 10:00:00 7.2 4 Sudeste 8 Noroeste 0 920.9 0.5 86
2018-04-05 09:00:00 3.5 2 Sudoeste 12 Noroeste 0 920.5 -0.1 95
2018-04-05 08:00:00 2.4 5 Norte 11 Noroeste 0 920.4 -0.6 95
2018-04-05 07:00:00 2.5 3 Norte 10 Noroeste 0 920.4 -0.9 94
2018-04-05 06:00:00 2.7 7 Noroeste 10 Noroeste 0 920.6 -1.1 93
2018-04-05 05:00:00 3 5 Oeste 11 Noroeste 0 921 -1 92
2018-04-05 04:00:00 4.2 2 Este 6 Sudeste 0 921.3 -0.7 90
2018-04-05 03:00:00 5.2 3 Nordeste 6 Oeste 0 921.7 -0.1 91
2018-04-05 02:00:00 4.9 4 Sudoeste 12 Oeste 0 922 0.3 90
2018-04-05 01:00:00 5.7 5 Oeste 16 Oeste 0 922 0.9 88
2018-04-05 00:00:00 6.5 11 Oeste 22 Oeste 0 921.8 1.6 86
2018-04-04 23:00:00 6.5 9 Oeste 23 Oeste 0 921.7 2 90
2018-04-04 22:00:00 6.9 12 Oeste 35 Oeste 0 921.1 2.3 89
2018-04-04 21:00:00 7.4 16 Oeste 37 Oeste 0 920.2 2.2 89
2018-04-04 20:00:00 8.4 14 Oeste 43 Oeste 0 919.7 2.6 83
2018-04-04 19:00:00 9.4 20 Oeste 51 Sudoeste 0 918.8 2.3 75
2018-04-04 18:00:00 10.3 25 Oeste 53 Oeste 0 918 2.1 72
2018-04-04 17:00:00 11.3 24 Oeste 57 Oeste 0 917.1 1.9 71
2018-04-04 16:00:00 11 23 Oeste 49 Oeste 0 916.5 1.8 72
2018-04-04 15:00:00 9.8 15 Oeste 49 Sudoeste 0.4 915.9 2 83
2018-04-04 14:00:00 10.5 21 Oeste 48 Oeste 0.2 915.2 2.5 81
2018-04-04 13:00:00 10.1 22 Oeste 54 Oeste 0 914.7 2.8 78
2018-04-04 12:00:00 8.4 20 Oeste 51 Sudoeste 0.4 913.9 3 86
2018-04-04 11:00:00 7.2 17 Oeste 39 Sudoeste 0.4 912.7 2.7 91
2018-04-04 10:00:00 6.1 18 Oeste 45 Oeste 1.4 911.9 2.8 90
2018-04-04 09:00:00 5.8 19 Oeste 43 Sudoeste 1.2 910.9 2.2 90
2018-04-04 08:00:00 5.6 14 Oeste 47 Sudoeste 1 910 1.9 90
2018-04-04 07:00:00 5.4 15 Oeste 44 Oeste 0 909.1 1.5 89
2018-04-04 06:00:00 5.7 16 Oeste 49 Sudoeste 1.2 908.7 1 90
2018-04-04 05:00:00 5.3 17 Sudoeste 46 Sudoeste 2.8 908.1 0.3 88
2018-04-04 04:00:00 5.6 11 Sudoeste 30 Sudoeste 0.4 907.6 0.1 86
2018-04-04 03:00:00 4.8 12 Oeste 36 Oeste 0.8 907.7 0.4 88
2018-04-04 02:00:00 4.9 15 Oeste 40 Sudoeste 0.2 907.8 0.9 87
2018-04-04 01:00:00 4.4 15 Sudoeste 47 Sudoeste 0.8 907.5 1.3 85
2018-04-04 00:00:00 4.9 15 Oeste 42 Sudoeste 0.6 907.3 2 86
2018-04-03 23:00:00 4.8 15 Sudoeste 39 Sudoeste 1.2 906.9 1.3 89
2018-04-03 22:00:00 3.9 14 Sudoeste 52 Oeste 2.4 906.2 1.2 89
2018-04-03 21:00:00 4.5 18 Sudoeste 42 Oeste 3.8 905.3 0.7 89
2018-04-03 20:00:00 4.3 17 Oeste 65 Oeste 8.2 905.6 1.2 88
2018-04-03 19:00:00 6.8 19 Sudoeste 53 Oeste 2 905 0 82
2018-04-03 18:00:00 8 28 Sudoeste 64 Sudoeste 0.2 904.6 -0.8 75
2018-04-03 17:00:00 10.7 23 Sudoeste 58 Oeste 0 904.4 -0.9 60
2018-04-03 16:00:00 10 26 Sudoeste 54 Oeste 1 905 -1 71
2018-04-03 15:00:00 10.3 19 Sudoeste 52 Sudoeste 0.2 905.4 -0.7 70
2018-04-03 14:00:00 10.9 19 Sudoeste 55 Sudoeste 0 905.3 -1.1 65
2018-04-03 13:00:00 10.5 13 Sudoeste 47 Sudoeste 0.4 906 -0.1 74
2018-04-03 12:00:00 9.5 16 Sur 42 Sudoeste 1 906.1 0 76
2018-04-03 11:00:00 6.4 6 Sudoeste 31 Oeste 1.2 906.4 1.1 85
2018-04-03 10:00:00 5.6 12 Sudoeste 33 Sudoeste 0.6 906.1 0.5 82
2018-04-03 09:00:00 5.5 13 Sudoeste 37 Sudoeste 0.8 906.1 0.5 83
2018-04-03 08:00:00 5.5 21 Sudoeste 56 Sudoeste 0.2 905.3 0.1 79
2018-04-03 07:00:00 5.3 19 Sudoeste 57 Sudoeste 3.6 905.6 -0.1 86
2018-04-03 06:00:00 6.2 27 Sudoeste 68 Oeste 4.6 905.6 -0.6 84
2018-04-03 05:00:00 7.2 11 Sudoeste 41 Sudoeste 0.8 905.2 -1.3 84
2018-04-03 04:00:00 7.7 18 Sudoeste 48 Sudoeste 0.2 905.7 -1.5 75
2018-04-03 03:00:00 7.9 14 Sudoeste 36 Oeste 0 906.2 -1.3 70
2018-04-03 02:00:00 8.1 8 Sudoeste 24 Sudoeste 0 906.5 -0.8 76
2018-04-03 01:00:00 8 14 Sudoeste 30 Sudoeste 0 907.2 0.2 78
2018-04-03 00:00:00 8.4 11 Sudoeste 36 Sudoeste 0 907.5 0.9 81
2018-04-02 23:00:00 8.4 12 Sudoeste 39 Oeste 0 907.3 0.9 79
2018-04-02 22:00:00 8.6 11 Sudoeste 31 Sudoeste 0.2 907 0.8 79
2018-04-02 21:00:00 9.1 6 Sudoeste 36 Sur 0.2 906.6 0.3 79
2018-04-02 20:00:00 10.3 13 Sudoeste 40 Sudoeste 0 906.4 -0.1 66
2018-04-02 19:00:00 10.8 15 Sudoeste 37 Sudoeste 0 906.2 -0.4 63
2018-04-02 18:00:00 12 15 Sudoeste 42 Sudoeste 0 906.3 -0.7 62
2018-04-02 17:00:00 12.1 22 Sudoeste 51 Sudoeste 0.2 906.5 -0.6 63
2018-04-02 16:00:00 11.7 21 Sudoeste 44 Sudoeste 0.6 906.6 -0.8 78
2018-04-02 15:00:00 11.2 9 Sudoeste 41 Oeste 0.6 907 -0.5 77
2018-04-02 14:00:00 12.7 12 Sudoeste 36 Sudoeste 0.8 907.1 -0.3 76
2018-04-02 13:00:00 12.2 13 Sudoeste 36 Sudoeste 0.4 907.4 -0.2 65
2018-04-02 12:00:00 7.2 6 Este 28 Oeste 0 907.5 -0.2 83
2018-04-02 11:00:00 7.9 9 Sudoeste 29 Sur 1 907.4 -0.4 80
2018-04-02 10:00:00 8.7 8 Noroeste 28 Sur 0 907.6 0.1 71
2018-04-02 09:00:00 8.9 7 Sudoeste 28 Sur 0 907.7 -0.2 68
2018-04-02 08:00:00 8.6 7 Este 22 Norte 0 907.8 -0.7 66
2018-04-02 07:00:00 8.7 8 Norte 23 Sudoeste 0 907.5 -1.6 74
2018-04-02 06:00:00 9.7 11 Sudeste 38 Sudoeste 0 907.9 -2 65
2018-04-02 05:00:00 9.7 9 Sudoeste 34 Sudoeste 0 908.5 -2.1 68
2018-04-02 04:00:00 9.2 10 Este 24 Este 0 909.1 -1.7 71
2018-04-02 03:00:00 9.5 10 Este 28 Este 0 909.9 -1.1 71
2018-04-02 02:00:00 9.4 4 Norte 25 Nordeste 0 910.6 -0.6 71
2018-04-02 01:00:00 9.6 15 Este 28 Nordeste 0 910.8 -0.6 71
2018-04-02 00:00:00 10.2 12 Nordeste 35 Nordeste 0 911 -0.2 67
2018-04-01 23:00:00 10.8 9 Este 24 Sudeste 0 911.2 -0.3 63
2018-04-01 22:00:00 11 10 Sudeste 26 Sudeste 0 911.4 -0.6 60
2018-04-01 21:00:00 11.7 12 Sudeste 27 Sudeste 0 911.2 -1.4 59
2018-04-01 20:00:00 12.8 11 Sudeste 28 Sudeste 0 911.5 -2 56
2018-04-01 19:00:00 13.3 18 Sudeste 40 Este 0 912 -2.2 54
2018-04-01 18:00:00 12.8 18 Sudeste 35 Sudeste 0 912.6 -2.2 55
2018-04-01 17:00:00 13.5 15 Sudeste 37 Sudeste 0 913.5 -2.2 55
2018-04-01 16:00:00 12.7 13 Sudeste 36 Sudeste 0 914.2 -2.1 59
2018-04-01 15:00:00 12.7 20 Sudeste 44 Sudeste 0 914.8 -1.4 56
2018-04-01 14:00:00 11.6 15 Sudeste 35 Este 0 915.7 -1 60
2018-04-01 13:00:00 9.2 14 Sudeste 40 Este 0 916.3 -0.8 58
2018-04-01 12:00:00 7.8 15 Este 32 Este 0 916.2 -0.5 68
2018-04-01 11:00:00 5.3 8 Este 16 Este 0 916.7 -0.1 84
2018-04-01 10:00:00 4.1 5 Sudeste 13 Sudoeste 0 917.1 0 92
2018-04-01 09:00:00 3.2 3 Norte 8 Nordeste 0 916.7 -0.8 93
2018-04-01 08:00:00 3 3 Sur 5 Sudoeste 0 916.8 -1.2 90
2018-04-01 07:00:00 3.1 3 Sudoeste 9 Nordeste 0 917.1 -1.7 90
2018-04-01 06:00:00 3.4 4 Nordeste 11 Nordeste 0 917.5 -2 88
2018-04-01 05:00:00 3.5 2 Nordeste 11 Norte 0 918 -1.6 91
2018-04-01 04:00:00 3.7 5 Nordeste 10 Nordeste 0.4 918.8 -0.9 93
2018-04-01 03:00:00 3.8 3 Nordeste 8 Noroeste 0.6 919.5 -0.5 93
2018-04-01 02:00:00 4 3 Nordeste 7 Norte 0.2 919.6 -0.4 92
2018-04-01 01:00:00 4.3 3 Sudeste 6 Este 0.6 919.7 0.1 91
2018-04-01 00:00:00 4.6 2 Sudoeste 10 Oeste 0.4 920 0.9 88
2018-03-31 23:00:00 4.5 8 Oeste 14 Oeste 0.2 920 1.1 85
2018-03-31 22:00:00 5.1 6 Oeste 11 Oeste 0 919.6 0.8 79
2018-03-31 21:00:00 5.7 7 Oeste 17 Oeste 0 919.1 0.4 73
2018-03-31 20:00:00 6.4 7 Oeste 32 Sudoeste 0 918.9 0.1 74
2018-03-31 19:00:00 8.1 11 Sudoeste 25 Oeste 0 918.8 -0.1 61
2018-03-31 18:00:00 9 14 Oeste 32 Oeste 0 918.7 -0.1 53
2018-03-31 17:00:00 9.5 15 Oeste 37 Oeste 0 918.8 0 53
2018-03-31 16:00:00 10.2 12 Sudoeste 33 Sudoeste 0 918.9 0.1 59
2018-03-31 15:00:00 9 14 Oeste 32 Oeste 0 918.8 0.5 66
2018-03-31 14:00:00 8.2 18 Oeste 37 Oeste 0 918.8 1.5 66
2018-03-31 13:00:00 5.7 13 Oeste 27 Oeste 0 918.8 2 79
2018-03-31 12:00:00 4.7 9 Oeste 24 Oeste 0 918.3 2.6 80
2018-03-31 11:00:00 5.5 12 Oeste 31 Noroeste 0 917.3 2.7 79
2018-03-31 10:00:00 3 12 Oeste 28 Noroeste 0 916.8 3.3 94
2018-03-31 09:00:00 1.8 12 Oeste 35 Oeste 0.2 915.7 3 95
2018-03-31 08:00:00 1.8 13 Oeste 28 Noroeste 0.2 914.6 2.9 95
2018-03-31 07:00:00 1.7 13 Oeste 29 Oeste 0.2 913.5 2.7 95
2018-03-31 06:00:00 1.2 13 Oeste 24 Oeste 2 912.7 2.8 95
2018-03-31 05:00:00 1.4 11 Oeste 35 Oeste 1.6 911.7 2.7 94
2018-03-31 04:00:00 1.9 17 Oeste 43 Oeste 1 910.8 2.8 93
2018-03-31 03:00:00 1.9 19 Oeste 47 Oeste 0.6 909.9 2.9 92
2018-03-31 02:00:00 1.8 21 Oeste 50 Oeste 0.4 909 2.8 92
2018-03-31 01:00:00 1.4 24 Oeste 49 Oeste 1.2 908 3.1 94
2018-03-31 00:00:00 1.5 25 Oeste 63 Oeste 0.4 907 2.6 92
2018-03-30 23:00:00 1 22 Oeste 57 Oeste 1.8 906.2 2.1 92
2018-03-30 22:00:00 1.8 21 Oeste 49 Oeste 0.2 904.9 1.3 88
2018-03-30 21:00:00 1.7 17 Oeste 40 Oeste 0.8 904.4 1.5 93
2018-03-30 20:00:00 0.7 13 Oeste 53 Oeste 1.8 904.1 0.7 94
2018-03-30 19:00:00 1.3 17 Oeste 44 Sudoeste 2.8 903.6 -0.8 93
2018-03-30 18:00:00 1.5 9 Oeste 41 Oeste 2.8 902.9 -2.6 90
2018-03-30 17:00:00 3.8 19 Sudoeste 47 Sudoeste 0.4 903.4 -3 83
2018-03-30 16:00:00 1.4 26 Oeste 58 Oeste 3 904.4 -2.6 90
2018-03-30 15:00:00 3.6 13 Sudoeste 41 Sudoeste 0.6 905.5 -1.6 82
2018-03-30 14:00:00 3.8 15 Sudoeste 42 Sudoeste 0.8 906.4 -1.5 82
2018-03-30 13:00:00 3.5 18 Sudoeste 45 Sudoeste 1 907 -1 83
2018-03-30 12:00:00 5.8 15 Sudoeste 46 Oeste 0 907.1 -1.3 71
2018-03-30 11:00:00 3.8 11 Sudoeste 34 Sudoeste 0 907.9 -0.2 70
2018-03-30 10:00:00 3.4 12 Sudoeste 39 Oeste 0.2 908 -0.7 75
2018-03-30 09:00:00 0.5 12 Sudoeste 33 Oeste 0 908.4 -0.6 84
2018-03-30 08:00:00 0.2 15 Oeste 30 Sudoeste 0 908.1 -0.7 84
2018-03-30 07:00:00 0.2 13 Oeste 28 Oeste 0 908.7 -0.3 92
2018-03-30 06:00:00 0 10 Oeste 34 Oeste 0 909 0.5 91
2018-03-30 05:00:00 0.2 17 Oeste 33 Oeste 0 908.8 1 89
2018-03-30 04:00:00 0.4 17 Oeste 51 Oeste 0.2 909 1.9 90
2018-03-30 03:00:00 0.8 21 Oeste 45 Oeste 0 908.5 1.6 90
2018-03-30 02:00:00 1.1 18 Oeste 42 Oeste 0.2 907.8 1.7 92
2018-03-30 01:00:00 1.7 21 Oeste 42 Oeste 0.4 907.1 0.4 90
2018-03-30 00:00:00 2 17 Oeste 59 Sudoeste 3.2 906.9 -0.3 91
2018-03-29 23:00:00 3.2 25 Oeste 53 Sudoeste 0.2 906.1 -1.2 87
2018-03-29 22:00:00 2.2 9 Oeste 34 Sudoeste 3.6 906.7 -1.5 92
2018-03-29 21:00:00 4.2 12 Oeste 41 Oeste 0.8 907.2 -2.3 86
2018-03-29 20:00:00 5.1 12 Sudoeste 42 Sudoeste 0 907.3 -3.3 83
2018-03-29 19:00:00 5.5 12 Oeste 39 Sudoeste 0.4 908.2 -2.9 85
2018-03-29 18:00:00 5.7 12 Oeste 27 Oeste 0.8 909.5 -2.6 85
2018-03-29 17:00:00 -- 15 Oeste 36 Oeste 3.4 910.6 -2.4 87
2018-03-29 16:00:00 7.9 13 Sudoeste 43 Sudoeste 0 911.1 -2.6 74
2018-03-29 15:00:00 9.5 16 Sudoeste 42 Sudoeste 0.2 912.1 -2.1 71
2018-03-29 14:00:00 9.8 18 Sudoeste 43 Sudoeste 0 913 -1.9 68
2018-03-29 13:00:00 9.3 15 Sudoeste 41 Sudoeste 0 913.7 -1.7 66
2018-03-29 12:00:00 6.7 14 Sudoeste 37 Oeste 0 914.2 -1.6 67
2018-03-29 11:00:00 8 17 Oeste 37 Oeste 0 914.9 -1.3 65
2018-03-29 10:00:00 5.6 13 Oeste 35 Oeste 0 915.4 -1 69
2018-03-29 09:00:00 2.6 17 Oeste 33 Oeste 0 915.8 -1.2 81
2018-03-29 08:00:00 1.8 12 Oeste 26 Oeste 0 916.2 -1.1 91
2018-03-29 07:00:00 1.9 10 Oeste 28 Oeste 0 916.4 -1.8 86
2018-03-29 06:00:00 1.3 9 Oeste 23 Oeste 0 917 -1.6 89
2018-03-29 05:00:00 1.6 13 Oeste 24 Oeste 0 917.3 -1.8 84
2018-03-29 04:00:00 2.9 13 Oeste 23 Noroeste 0 918.2 -1.4 92
2018-03-29 03:00:00 3.5 7 Oeste 17 Noroeste 0 918.6 -1.5 93
2018-03-29 02:00:00 3.6 4 Oeste 18 Oeste 0 919.1 -1 92
2018-03-29 01:00:00 3.9 9 Oeste 23 Noroeste 0 919.6 -0.3 91
2018-03-29 00:00:00 4.2 9 Noroeste 26 Noroeste 0.2 920.1 0.3 92
2018-03-28 23:00:00 4.9 10 Oeste 27 Noroeste 0.6 920.1 0.5 92
2018-03-28 22:00:00 6 12 Oeste 22 Oeste 1.8 919.9 0.5 93
2018-03-28 21:00:00 6.7 10 Oeste 23 Noroeste 1 919.8 0.2 91
2018-03-28 20:00:00 7.3 13 Noroeste 37 Oeste 0.4 919.6 -0.6 88
2018-03-28 19:00:00 8.9 18 Oeste 37 Sudoeste 0 919.4 -1.5 82
2018-03-28 18:00:00 8.9 17 Oeste 36 Oeste 0 919.6 -1.8 82
2018-03-28 17:00:00 9.3 16 Oeste 47 Oeste 0.6 920.2 -1.5 84
2018-03-28 16:00:00 10.3 16 Oeste 36 Sudoeste 0.4 920.9 -1.3 84
2018-03-28 15:00:00 11.8 16 Oeste 40 Oeste 0 921.4 -1.3 74
2018-03-28 14:00:00 12.4 17 Oeste 41 Sudoeste 0 921.7 -1.4 64
2018-03-28 13:00:00 12.7 17 Sudoeste 33 Oeste 0 922.2 -1.3 62
2018-03-28 12:00:00 11.5 13 Oeste 38 Oeste 0 922.7 -1.1 67
2018-03-28 11:00:00 8.9 17 Oeste 36 Sudoeste 0 923.1 -0.8 79
2018-03-28 10:00:00 6.9 12 Oeste 30 Sudoeste 0 923.5 -1 85
2018-03-28 09:00:00 5.7 9 Oeste 18 Noroeste 0 923.8 -1.2 91
2018-03-28 08:00:00 5.4 6 Oeste 14 Noroeste 0 923.9 -1.4 87
2018-03-28 07:00:00 5 5 Noroeste 20 Oeste 0 924.5 -1.1 86
2018-03-28 06:00:00 4.8 4 Este 19 Norte 0 925 -1.2 87
2018-03-28 05:00:00 4.1 4 Oeste 20 Oeste 0 925.3 -1.3 81
2018-03-28 04:00:00 6 4 Noroeste 17 Noroeste 0 925.6 -1.7 57
2018-03-28 03:00:00 9 11 Oeste 31 Oeste 0 926.2 -1.8 38
2018-03-28 02:00:00 8.3 15 Oeste 26 Oeste 0 926.6 -1.7 38
2018-03-28 01:00:00 7.6 14 Oeste 25 Oeste 0 927.3 -1.2 44
2018-03-28 00:00:00 8.2 15 Oeste 26 Oeste 0 928 -0.7 54
2018-03-27 23:00:00 8.6 12 Noroeste 22 Oeste 0 928.3 -0.5 63
2018-03-27 22:00:00 10 11 Oeste 19 Oeste 0 928.5 -0.4 61
2018-03-27 21:00:00 11.7 12 Oeste 23 Oeste 0 928.7 -0.6 53
2018-03-27 20:00:00 13.7 12 Oeste 31 Oeste 0 928.8 -0.7 51
2018-03-27 19:00:00 15.2 14 Oeste 30 Oeste 0 928.9 -1.2 46
2018-03-27 18:00:00 16.4 12 Oeste 31 Oeste 0 929.3 -1.2 44
2018-03-27 17:00:00 16.8 11 Noroeste 28 Oeste 0 929.5 -1.4 45
2018-03-27 16:00:00 16.3 12 Noroeste 27 Oeste 0 930.1 -1.1 52
2018-03-27 15:00:00 15.9 13 Oeste 25 Oeste 0 930.5 -0.9 52
2018-03-27 14:00:00 13.4 5 Nordeste 16 Este 0 930.9 -0.3 66
2018-03-27 13:00:00 13 7 Sudeste 15 Este 0 931.2 0.3 67
2018-03-27 12:00:00 11.3 5 Oeste 16 Oeste 0 931.4 0.9 74
2018-03-27 11:00:00 7.3 8 Oeste 16 Oeste 0 931.2 1.2 87
2018-03-27 10:00:00 6.6 3 Oeste 10 Oeste 0 930.9 1.2 90
2018-03-27 09:00:00 6.1 4 Oeste 13 Oeste 0 930.5 0.7 90
2018-03-27 08:00:00 5.9 6 Oeste 17 Oeste 0 930 0.5 92
2018-03-27 07:00:00 5.7 8 Oeste 18 Oeste 0 929.7 -0.1 93
2018-03-27 06:00:00 5.4 7 Oeste 20 Oeste 0 929.8 -0.2 92
2018-03-27 05:00:00 5.6 9 Oeste 26 Oeste 0 929.5 -0.5 90
2018-03-27 04:00:00 6.3 8 Oeste 18 Oeste 0 929.8 -0.3 91
2018-03-27 03:00:00 6.6 7 Oeste 15 Oeste 0 930 -0.1 93
2018-03-27 02:00:00 6.9 8 Oeste 22 Noroeste 0 930 0 93
2018-03-27 01:00:00 7.3 10 Oeste 22 Noroeste 0 930.1 0.7 93
2018-03-27 00:00:00 7.3 9 Oeste 21 Oeste 0 930.1 1.1 95
2018-03-26 23:00:00 7.3 8 Oeste 19 Oeste 0 930 1.2 95
2018-03-26 22:00:00 7.4 9 Oeste 21 Oeste 0 929.4 0.6 91
2018-03-26 21:00:00 7.7 9 Oeste 22 Oeste 0 929 0.1 84
2018-03-26 20:00:00 8.7 9 Noroeste 24 Noroeste 0 928.8 0 75
2018-03-26 19:00:00 9 10 Oeste 20 Oeste 0 928.8 -0.2 72
2018-03-26 18:00:00 9.2 5 Oeste 26 Noroeste 0 928.9 0.2 69
2018-03-26 17:00:00 10.7 12 Oeste 24 Oeste 0 928.8 -0.3 62
2018-03-26 16:00:00 10.8 13 Oeste 27 Noroeste 0 929 0 62
2018-03-26 15:00:00 11.3 7 Oeste 19 Noroeste 0 928.7 -0.1 59
2018-03-26 14:00:00 9.8 8 Norte 18 Norte 0 929.1 0.9 61
2018-03-26 13:00:00 8.3 6 Nordeste 20 Nordeste 0 929 1.3 62
2018-03-26 12:00:00 6.9 4 Oeste 16 Noroeste 0 928.8 1.4 66
2018-03-26 11:00:00 6.5 3 Noroeste 9 Noroeste 0 928.2 1.7 73
2018-03-26 10:00:00 3.5 6 Sudoeste 13 Oeste 0 927.7 1.4 85
2018-03-26 09:00:00 1.7 5 Oeste 13 Oeste 0 927.4 1.6 92
2018-03-26 08:00:00 1.3 6 Oeste 10 Oeste 0 926.5 1.2 91
2018-03-26 07:00:00 0.6 8 Oeste 12 Oeste 0 926.3 0.7 95
2018-03-26 06:00:00 -0.3 6 Oeste 18 Oeste 0 925.8 0.5 93
2018-03-26 05:00:00 0.3 6 Noroeste 16 Oeste 0 925.3 0.6 92
2018-03-26 04:00:00 -0.2 5 Oeste 10 Oeste 0 925.6 0.7 90
2018-03-26 03:00:00 0.5 3 Norte 19 Oeste 0 925.3 1.1 90
2018-03-26 02:00:00 1.1 7 Oeste 19 Oeste 0 924.7 1.1 88
2018-03-26 01:00:00 1.7 9 Oeste 26 Oeste 0 924.9 2.4 90
2018-03-26 00:00:00 1.9 8 Oeste 20 Sudoeste 0 924.2 2.4 86
2018-03-25 23:00:00 2.5 8 Oeste 20 Norte 0 923.6 2.5 80
2018-03-25 22:00:00 3.4 10 Noroeste 28 Noroeste 0 922.5 2 76
2018-03-25 21:00:00 3.9 10 Noroeste 29 Noroeste 0 921.8 2.1 67
2018-03-25 20:00:00 5 15 Noroeste 35 Noroeste 0 921.1 1.9 60
2018-03-25 19:00:00 6.5 9 Noroeste 35 Norte 0 920.5 1.4 57
2018-03-25 18:00:00 7.1 13 Oeste 33 Noroeste 0 919.7 0.8 59
2018-03-25 17:00:00 7.5 14 Noroeste 34 Norte 0 919.2 0.7 61
2018-03-25 16:00:00 7 15 Noroeste 35 Noroeste 0 919.1 0.9 66
2018-03-25 15:00:00 6.1 15 Noroeste 36 Noroeste 0 918.9 1.1 76
2018-03-25 14:00:00 4.9 11 Oeste 35 Oeste 0 918.5 1.6 84
2018-03-25 13:00:00 4 6 Noroeste 28 Norte 0 918.2 2.2 88
2018-03-25 12:00:00 3.2 8 Oeste 29 Oeste 0 917.8 2.6 92
2018-03-25 11:00:00 2 9 Oeste 26 Noroeste 0 916.9 2.4 95
2018-03-25 10:00:00 1.6 6 Oeste 16 Oeste 0.2 916 2.2 97
2018-03-25 09:00:00 1.4 6 Oeste 18 Oeste 0 915.2 2.2 97
2018-03-25 08:00:00 1.3 8 Oeste 16 Oeste 0 914.5 2 97
2018-03-25 07:00:00 1.2 9 Oeste 18 Oeste 0 913.8 1.4 96
2018-03-25 06:00:00 1.2 6 Oeste 14 Oeste 0.2 913 0.6 96
2018-03-25 05:00:00 1.3 4 Norte 12 Oeste 0.2 912.5 0 96
2018-03-25 03:00:00 1.2 6 Oeste 18 Oeste 0.2 912.4 -0.7 96
2018-03-25 01:00:00 1.6 8 Oeste 19 Oeste 0.4 912.5 -1 95
2018-03-25 00:00:00 1.8 11 Oeste 25 Oeste 0.6 912.8 -0.7 95
2018-03-24 23:00:00 1.6 11 Oeste 30 Oeste 0.4 913.1 -0.1 95
2018-03-24 22:00:00 1.7 16 Oeste 32 Noroeste 1.2 913.5 0.5 95
2018-03-24 21:00:00 1.8 12 Oeste 37 Noroeste 2 913.5 1.5 95
2018-03-24 20:00:00 2.6 15 Oeste 32 Oeste 0 913.2 1.3 92
2018-03-24 19:00:00 2.9 14 Oeste 49 Noroeste 0.2 913 1 89
2018-03-24 18:00:00 3.9 23 Oeste 52 Noroeste 0.2 912 0.5 90
2018-03-24 17:00:00 4.5 21 Oeste 45 Noroeste 0.8 911.9 0.5 93
2018-03-24 16:00:00 3.1 21 Noroeste 48 Noroeste 2.4 912 1.2 92
2018-03-24 15:00:00 4.2 24 Oeste 55 Oeste 0.8 911.5 1.3 91
2018-03-24 14:00:00 3.8 18 Oeste 55 Noroeste 0.6 911.4 1.6 93
2018-03-24 13:00:00 3.1 21 Oeste 56 Oeste 2.8 910.8 2.1 94
2018-03-24 12:00:00 2.5 23 Oeste 57 Oeste 3 910.2 2 94
2018-03-24 11:00:00 2.1 23 Oeste 60 Oeste 3 909.8 1.7 94
2018-03-24 10:00:00 1.7 24 Oeste 57 Oeste 2.6 908.7 1.1 94
2018-03-24 09:00:00 1.4 23 Oeste 64 Oeste 2 908.2 0.3 93
2018-03-24 08:00:00 1 23 Oeste 54 Oeste 1.6 908.1 0.7 94
2018-03-24 07:00:00 0.9 26 Oeste 57 Noroeste 0.4 907.6 0.3 95
2018-03-24 06:00:00 0.6 24 Oeste 51 Oeste 1.2 907.9 0.1 95
2018-03-24 05:00:00 1.2 25 Oeste 53 Oeste 1 907.4 -0.9 92
2018-03-24 04:00:00 1.1 22 Oeste 52 Oeste 0.8 907.3 -1.6 92
2018-03-24 03:00:00 1.4 25 Oeste 53 Oeste 0 907.8 -1 90
2018-03-24 02:00:00 0.8 17 Oeste 46 Oeste 0.8 908.3 -0.7 94
2018-03-24 01:00:00 0.9 17 Oeste 39 Noroeste 0.8 908.9 0.7 94
2018-03-24 00:00:00 1.3 18 Oeste 37 Oeste 0.4 908.8 0.5 94
2018-03-23 23:00:00 1.1 21 Noroeste 49 Oeste 1 909 0.9 91
2018-03-23 22:00:00 2.9 22 Oeste 45 Oeste 0.2 908.2 1.3 88
2018-03-23 21:00:00 3 19 Oeste 68 Noroeste 3.4 908.3 -0.3 91
2018-03-23 20:00:00 3.9 21 Noroeste 53 Noroeste 4.6 908.1 -2.4 82
2018-03-23 19:00:00 6.7 20 Sudoeste 54 Sudoeste 1.4 906.9 -5 87
2018-03-23 18:00:00 7.1 22 Sudoeste 50 Sudoeste 1.6 908.6 -4.5 85
2018-03-23 17:00:00 8.9 24 Sudoeste 59 Oeste 0 910.5 -4.2 69
2018-03-23 16:00:00 10.2 19 Sudoeste 46 Sudoeste 0 911.9 -4.8 67
2018-03-23 15:00:00 10.4 20 Oeste 46 Sudoeste 0 913.1 -4.3 71
2018-03-23 14:00:00 10.5 9 Oeste 41 Oeste 0 914.7 -3.5 80
2018-03-23 13:00:00 10.4 23 Oeste 44 Oeste 0 916.7 -2.1 79
2018-03-23 12:00:00 11 14 Oeste 36 Oeste 0 917.4 -1.5 83
2018-03-23 11:00:00 9.3 9 Sudoeste 20 Sudoeste 0.2 918.2 -1.3 94
2018-03-23 10:00:00 7 6 Sudoeste 17 Sudoeste 0 918.8 -1.2 96
2018-03-23 09:00:00 6.1 3 Oeste 10 Oeste 0.2 918.9 -1.9 96
2018-03-23 08:00:00 5.6 4 Este 23 Oeste 0 919.5 -1.7 95
2018-03-23 07:00:00 6.1 6 Sudoeste 24 Oeste 0.4 920 -2 94
2018-03-23 06:00:00 6.4 9 Oeste 21 Oeste 0.6 920.8 -1.9 96
2018-03-23 05:00:00 5.6 9 Oeste 20 Oeste 0.2 921.2 -2.2 96
2018-03-23 04:00:00 4.2 3 Norte 11 Oeste 1.4 922 -1.5 94
2018-03-23 03:00:00 4.1 2 Norte 7 Sudeste 1.8 922.7 -1.7 93
2018-03-23 02:00:00 4.1 3 Nordeste 25 Oeste 0.6 923.4 -1.2 92
2018-03-23 01:00:00 4.4 13 Oeste 27 Oeste 0 923.5 -1.5 79
2018-03-23 00:00:00 6.7 11 Oeste 29 Oeste 0 924.4 -0.4 50